Terminal Aerodrome Forecast
Issued by NWS King Salmon, AK

Current Version | Previous Version | Text Only | Print | Product List | Glossary On
Versions: 1 2 3 4 5 6 7 8 9 10 11 12 13 14 15 16 17 18 19 20 21 22 23 24 25 26 27 28 29 30 31 32 33 34 35 36 37 38 39 40 41 42 43 44 45 46 47 48 49
000
FTAK31 PANC 212333
TAFAKN
TAF
PAKN 212333Z 2200/2224 36008KT P6SM SCT045
     FM220700 01008KT P6SM BKN050
     FM221400 01005KT P6SM SCT050
      TEMPO 2214/2218 2SM BR BKN003=

USA.gov is the U.S. government's official web portal to all federal, state and local government web resources and services.